Time;durP1;ratioP1;P1;durP2;ratioP2;P2;SDS_P1;SDS_P2;PMS_P1;PMS_P2;Temp;Humidity;BMP_temperature;BMP_pressure;BME280_temperature;BME280_humidity;BME280_pressure;Samples;Min_cycle;Max_cycle;Signal;HPM_P1;HPM_P2
2021/08/30 00:01:51;;;;;;;12.65;6.92;;;;;;;24.89;41.28;100232.42;1824786;78;20998;-69
2021/08/30 00:04:18;;;;;;;10.55;6.45;;;;;;;24.86;41.23;100232.00;1825153;78;21749;-68
2021/08/30 00:06:45;;;;;;;14.05;6.85;;;;;;;24.85;41.27;100234.34;1822197;78;21404;-68
2021/08/30 00:09:12;;;;;;;15.13;7.55;;;;;;;24.82;41.24;100238.25;1821432;78;21472;-68
2021/08/30 00:11:40;;;;;;;18.70;7.35;;;;;;;24.79;41.40;100226.06;1821218;78;20931;-68
2021/08/30 00:14:08;;;;;;;18.07;7.42;;;;;;;24.78;41.49;100224.39;1821283;78;20864;-68
2021/08/30 00:16:36;;;;;;;10.55;6.47;;;;;;;24.75;41.94;100224.79;1821096;78;20912;-68
2021/08/30 00:19:03;;;;;;;13.48;6.78;;;;;;;24.71;41.69;100224.86;1821187;78;20919;-68
2021/08/30 00:21:31;;;;;;;18.52;7.17;;;;;;;24.69;41.73;100231.44;1821285;78;21453;-68
2021/08/30 00:23:57;;;;;;;15.35;6.33;;;;;;;24.65;41.73;100226.97;1821320;78;20927;-68
2021/08/30 00:26:25;;;;;;;21.20;6.37;;;;;;;24.61;41.74;100234.59;1821264;78;20879;-68
2021/08/30 00:28:52;;;;;;;10.72;6.72;;;;;;;24.57;41.70;100224.45;1821399;78;21517;-67
2021/08/30 00:31:20;;;;;;;9.10;5.85;;;;;;;24.56;41.76;100226.79;1821181;78;20967;-68
2021/08/30 00:33:47;;;;;;;14.90;6.62;;;;;;;24.53;41.75;100223.98;1821165;78;20900;-68
2021/08/30 00:36:16;;;;;;;13.35;6.65;;;;;;;24.51;41.74;100223.35;1821237;78;21405;-68
2021/08/30 00:38:42;;;;;;;17.00;6.87;;;;;;;24.49;41.74;100223.23;1821260;78;20872;-67
2021/08/30 00:41:13;;;;;;;10.93;6.25;;;;;;;24.46;41.89;100225.76;1821194;78;20955;-69
2021/08/30 00:43:39;;;;;;;16.87;6.08;;;;;;;24.44;42.09;100225.12;1821170;78;20923;-68
2021/08/30 00:46:06;;;;;;;15.23;6.72;;;;;;;24.40;41.96;100217.96;1821170;78;21536;-68
2021/08/30 00:48:33;;;;;;;12.50;5.90;;;;;;;24.37;41.98;100215.67;1821192;78;20880;-68
2021/08/30 00:51:00;;;;;;;12.43;7.10;;;;;;;24.34;41.89;100225.42;1821412;78;20919;-68
2021/08/30 00:53:27;;;;;;;12.10;6.53;;;;;;;24.31;42.08;100216.44;1821544;78;21529;-68
2021/08/30 00:55:54;;;;;;;10.80;5.75;;;;;;;24.29;42.13;100220.33;1821467;78;20986;-68
2021/08/30 00:58:21;;;;;;;10.55;5.80;;;;;;;24.25;42.20;100227.91;1821496;78;20968;-69
2021/08/30 01:00:48;;;;;;;14.38;5.87;;;;;;;24.23;42.13;100223.25;1821557;78;21380;-68
2021/08/30 01:03:14;;;;;;;14.10;6.37;;;;;;;24.19;42.60;100222.83;1821500;78;21341;-68
2021/08/30 01:05:42;;;;;;;12.33;6.70;;;;;;;24.17;42.00;100224.04;1821905;78;21502;-68
2021/08/30 01:08:17;;;;;;;9.90;5.87;;;;;;;24.16;42.12;100225.05;1824733;78;20927;-68
2021/08/30 01:10:59;;;;;;;10.93;5.47;;;;;;;24.13;42.15;100224.09;1824737;78;20895;-70
2021/08/30 01:13:53;;;;;;;13.70;6.28;;;;;;;24.12;42.14;100222.42;1824863;78;20907;-68
2021/08/30 01:16:21;;;;;;;11.75;6.03;;;;;;;24.10;41.97;100225.80;1825213;77;20919;-70
2021/08/30 01:18:50;;;;;;;12.35;6.22;;;;;;;24.09;41.90;100228.17;1824898;78;21151;-68
2021/08/30 01:21:26;;;;;;;12.18;6.10;;;;;;;24.07;41.99;100222.99;1824856;78;20940;-68
2021/08/30 01:24:00;;;;;;;10.10;6.83;;;;;;;24.06;42.00;100226.70;1824896;78;20856;-67
2021/08/30 01:26:28;;;;;;;19.80;6.83;;;;;;;24.05;42.13;100225.03;1824840;78;20982;-67
2021/08/30 01:29:18;;;;;;;9.38;6.35;;;;;;;24.03;42.17;100224.39;1824809;77;20919;-67
2021/08/30 01:31:54;;;;;;;13.20;6.58;;;;;;;23.99;42.18;100227.98;1824992;78;21127;-68
2021/08/30 01:34:22;;;;;;;14.95;5.50;;;;;;;23.96;42.21;100226.17;1792312;80;20904;-68
2021/08/30 01:36:50;;;;;;;12.88;7.47;;;;;;;23.93;42.27;100222.03;1792464;80;21432;-68
2021/08/30 01:39:17;;;;;;;13.10;5.87;;;;;;;23.90;42.30;100222.91;1765791;80;20990;-67
2021/08/30 01:41:44;;;;;;;12.33;6.17;;;;;;;23.88;42.40;100219.58;1792531;79;20899;-72
2021/08/30 01:44:11;;;;;;;15.03;6.75;;;;;;;23.84;42.49;100224.50;1792806;80;21699;-69
2021/08/30 01:46:38;;;;;;;11.90;5.75;;;;;;;23.81;42.46;100222.19;1792257;80;20923;-69
2021/08/30 01:49:07;;;;;;;13.93;6.03;;;;;;;23.79;42.60;100225.59;1766067;80;20942;-69
2021/08/30 01:51:35;;;;;;;14.60;5.75;;;;;;;23.75;42.60;100216.27;1792481;79;21353;-69
2021/08/30 01:54:02;;;;;;;9.73;5.92;;;;;;;23.73;42.69;100219.61;1764861;80;20852;-69
2021/08/30 01:56:30;;;;;;;14.87;5.83;;;;;;;23.69;42.53;100217.80;1792354;79;21999;-70
2021/08/30 02:01:43;;;;;;;15.03;5.58;;;;;;;23.64;42.58;100221.56;1792358;80;20927;-69
2021/08/30 02:04:10;;;;;;;13.43;6.00;;;;;;;23.62;42.77;100222.77;1792338;79;21369;-69
2021/08/30 02:06:37;;;;;;;10.20;5.87;;;;;;;23.58;42.68;100223.13;1791220;80;21030;-70
2021/08/30 02:09:04;;;;;;;13.28;5.83;;;;;;;23.55;42.73;100219.49;1789029;80;21041;-69
2021/08/30 02:11:33;;;;;;;13.65;6.70;;;;;;;23.53;42.78;100220.19;1788897;80;20876;-68
2021/08/30 02:14:01;;;;;;;9.13;5.97;;;;;;;23.51;42.76;100217.38;1788967;80;20966;-71
2021/08/30 02:16:28;;;;;;;8.78;5.37;;;;;;;23.50;42.82;100221.05;1788827;79;20927;-73
2021/08/30 02:19:15;;;;;;;11.88;6.33;;;;;;;23.46;42.80;100217.94;1789380;79;20880;-74
2021/08/30 02:21:57;;;;;;;10.95;6.20;;;;;;;23.44;42.89;100223.98;1788958;79;21131;-73
2021/08/30 02:24:36;;;;;;;11.30;5.80;;;;;;;23.41;42.82;100217.67;1788959;79;20852;-72
2021/08/30 02:27:12;;;;;;;12.10;5.33;;;;;;;23.37;42.82;100225.23;1751444;81;20886;-74
2021/08/30 02:29:46;;;;;;;13.78;5.70;;;;;;;23.36;42.91;100223.55;1783342;79;20891;-72
2021/08/30 02:32:14;;;;;;;12.25;5.85;;;;;;;23.34;42.94;100218.92;1789257;80;20939;-73
2021/08/30 02:34:48;;;;;;;11.25;5.22;;;;;;;23.31;42.95;100222.47;1788921;80;21146;-73
2021/08/30 02:37:15;;;;;;;11.15;6.00;;;;;;;23.28;42.80;100223.67;1758534;80;20867;-72
2021/08/30 02:39:47;;;;;;;9.60;5.20;;;;;;;23.27;42.88;100227.34;1789056;80;20915;-71
2021/08/30 02:42:13;;;;;;;12.53;6.35;;;;;;;23.25;42.96;100220.52;1789102;79;21020;-71
2021/08/30 02:44:42;;;;;;;11.50;5.20;;;;;;;23.23;43.13;100223.37;1789458;80;20977;-73
2021/08/30 02:47:10;;;;;;;10.70;5.78;;;;;;;23.21;43.19;100217.89;1791962;79;20947;-71
2021/08/30 02:49:42;;;;;;;9.60;5.72;;;;;;;23.18;43.23;100227.94;1790883;80;21013;-71
2021/08/30 02:52:11;;;;;;;10.58;5.97;;;;;;;23.17;43.14;100230.30;1789058;80;20990;-71
2021/08/30 02:54:38;;;;;;;13.08;5.80;;;;;;;23.14;43.21;100227.16;1788966;80;20859;-72
2021/08/30 02:57:05;;;;;;;14.73;5.75;;;;;;;23.12;43.35;100235.39;1789011;80;20931;-71
2021/08/30 02:59:33;;;;;;;13.32;5.70;;;;;;;23.10;43.38;100234.73;1788963;80;21150;-71
2021/08/30 03:02:00;;;;;;;9.05;5.45;;;;;;;23.08;43.37;100237.28;1789024;80;21038;-72
2021/08/30 03:04:27;;;;;;;12.90;6.17;;;;;;;23.07;43.66;100236.94;1758932;80;20935;-72
2021/08/30 03:06:54;;;;;;;11.75;6.40;;;;;;;23.06;43.55;100235.29;1789820;79;20946;-72
2021/08/30 03:09:22;;;;;;;7.78;5.58;;;;;;;23.04;43.52;100237.31;1792320;80;21388;-73
2021/08/30 03:11:52;;;;;;;10.60;5.65;;;;;;;23.01;43.60;100238.52;1792310;80;20971;-73
2021/08/30 03:14:25;;;;;;;12.63;5.95;;;;;;;23.00;43.61;100241.36;1792201;80;20918;-72
2021/08/30 03:17:03;;;;;;;12.68;5.55;;;;;;;22.97;43.61;100243.35;1792850;80;20876;-72
2021/08/30 03:19:30;;;;;;;14.13;6.75;;;;;;;22.97;43.61;100243.35;1792206;80;21453;-72
2021/08/30 03:21:59;;;;;;;20.55;7.45;;;;;;;22.96;43.61;100245.69;1766186;80;21101;-72
2021/08/30 03:24:27;;;;;;;14.98;7.08;;;;;;;22.95;43.59;100245.38;1792389;80;21149;-72
2021/08/30 03:26:54;;;;;;;14.58;8.63;;;;;;;22.96;43.72;100248.88;1792155;80;21310;-72
2021/08/30 03:29:21;;;;;;;23.57;8.23;;;;;;;22.96;43.77;100250.21;1766102;80;20974;-72
2021/08/30 03:31:49;;;;;;;15.55;7.10;;;;;;;22.95;43.79;100244.55;1792547;80;20974;-73
2021/08/30 03:34:17;;;;;;;16.65;8.23;;;;;;;22.95;43.77;100245.89;1792561;80;20847;-72
2021/08/30 03:36:44;;;;;;;12.40;7.08;;;;;;;22.95;43.77;100252.58;1792671;80;21545;-73
2021/08/30 03:39:11;;;;;;;13.93;6.87;;;;;;;22.94;43.85;100247.73;1792135;80;21030;-73
2021/08/30 03:41:39;;;;;;;11.03;5.92;;;;;;;22.95;43.85;100254.73;1792389;80;21441;-73
2021/08/30 03:44:09;;;;;;;12.53;6.30;;;;;;;22.96;43.81;100256.38;1792165;80;20891;-73
2021/08/30 03:46:38;;;;;;;12.43;6.12;;;;;;;22.96;43.81;100253.70;1792423;80;20954;-72
2021/08/30 03:49:04;;;;;;;11.45;6.03;;;;;;;22.98;43.89;100254.88;1765672;80;21253;-72
2021/08/30 03:51:32;;;;;;;16.87;6.08;;;;;;;23.00;43.89;100249.38;1765845;80;20910;-72
2021/08/30 03:53:59;;;;;;;14.53;6.25;;;;;;;23.02;43.85;100247.36;1792070;80;20864;-73
2021/08/30 03:56:26;;;;;;;12.55;5.67;;;;;;;23.03;43.86;100259.70;1765824;80;20938;-71
2021/08/30 03:58:53;;;;;;;12.00;6.05;;;;;;;23.05;43.95;100254.50;1792247;80;20824;-73
2021/08/30 04:01:23;;;;;;;11.83;5.37;;;;;;;23.07;43.89;100259.67;1792530;80;21562;-72
2021/08/30 04:03:49;;;;;;;8.83;5.92;;;;;;;23.09;44.01;100258.47;1791927;80;20942;-73
2021/08/30 04:06:16;;;;;;;13.93;5.87;;;;;;;23.12;44.00;100261.28;1792099;80;21001;-73
2021/08/30 04:08:44;;;;;;;12.47;6.05;;;;;;;23.17;43.92;100265.59;1792192;80;20899;-75
2021/08/30 04:11:14;;;;;;;16.40;6.35;;;;;;;23.21;43.97;100269.58;1766594;80;20879;-71
2021/08/30 04:13:40;;;;;;;12.45;5.62;;;;;;;23.27;43.91;100267.48;1792362;80;22163;-73
2021/08/30 04:16:09;;;;;;;16.65;5.90;;;;;;;23.34;44.08;100270.25;1792212;80;20943;-73
2021/08/30 04:18:36;;;;;;;10.75;5.95;;;;;;;23.41;43.90;100267.67;1792284;80;20880;-73
2021/08/30 04:21:03;;;;;;;14.10;5.15;;;;;;;23.47;43.82;100279.80;1792153;80;20895;-74
2021/08/30 04:23:30;;;;;;;10.38;5.60;;;;;;;23.53;43.49;100271.05;1792622;80;20911;-73
2021/08/30 04:25:57;;;;;;;11.97;5.53;;;;;;;23.59;43.37;100274.32;1792242;80;21552;-74
2021/08/30 04:28:24;;;;;;;17.12;5.62;;;;;;;23.68;43.43;100271.52;1792695;80;20883;-74
2021/08/30 04:30:52;;;;;;;12.53;5.47;;;;;;;23.75;43.25;100273.84;1792302;80;20931;-73
2021/08/30 04:33:22;;;;;;;10.72;5.03;;;;;;;23.83;43.27;100276.91;1792659;80;20978;-73
2021/08/30 04:35:49;;;;;;;7.97;4.78;;;;;;;23.92;43.36;100266.40;1792399;80;20990;-73
2021/08/30 04:38:16;;;;;;;12.33;5.60;;;;;;;24.03;43.13;100263.75;1792845;80;21590;-73
2021/08/30 04:40:44;;;;;;;11.60;5.20;;;;;;;24.14;42.96;100268.61;1792370;80;21384;-73
2021/08/30 04:43:12;;;;;;;13.55;5.28;;;;;;;24.25;42.96;100270.79;1792458;80;20962;-74
2021/08/30 04:45:38;;;;;;;9.48;5.30;;;;;;;24.40;42.79;100273.42;1792340;80;20994;-73
2021/08/30 04:48:06;;;;;;;12.58;5.15;;;;;;;24.57;42.88;100272.70;1792413;80;20911;-73
2021/08/30 04:50:33;;;;;;;10.20;5.35;;;;;;;24.80;42.73;100273.30;1792343;80;22152;-76
2021/08/30 04:53:00;;;;;;;14.83;5.97;;;;;;;25.02;41.69;100272.76;1792216;80;21029;-73
2021/08/30 04:55:27;;;;;;;11.00;5.72;;;;;;;25.25;41.29;100270.36;1792816;80;20966;-74
2021/08/30 04:57:54;;;;;;;15.58;5.30;;;;;;;25.53;40.80;100268.16;1792321;80;20867;-73
2021/08/30 05:00:21;;;;;;;10.82;5.10;;;;;;;25.88;39.96;100265.43;1792891;80;21047;-73
2021/08/30 05:02:48;;;;;;;13.40;5.55;;;;;;;26.21;39.91;100261.00;1792500;80;21535;-74
2021/08/30 05:05:15;;;;;;;24.87;5.87;;;;;;;26.53;38.83;100272.53;1792755;80;20863;-73
2021/08/30 05:07:43;;;;;;;13.08;4.53;;;;;;;26.80;38.44;100272.88;1792311;79;20883;-72
2021/08/30 05:10:10;;;;;;;14.18;5.60;;;;;;;27.10;37.81;100271.09;1792486;79;21412;-73
2021/08/30 05:12:37;;;;;;;16.50;5.35;;;;;;;27.44;37.16;100265.17;1792326;79;20946;-74
2021/08/30 05:15:06;;;;;;;14.43;5.90;;;;;;;27.81;36.85;100268.95;1792414;79;21140;-74
2021/08/30 05:17:33;;;;;;;13.65;4.92;;;;;;;28.20;36.51;100259.05;1792481;79;20872;-73
2021/08/30 05:20:03;;;;;;;19.87;5.25;;;;;;;28.51;35.60;100266.33;1792290;80;20919;-75
2021/08/30 05:22:30;;;;;;;11.73;5.28;;;;;;;28.79;34.89;100269.64;1792303;79;20923;-74
2021/08/30 05:24:57;;;;;;;19.95;5.70;;;;;;;29.00;34.60;100260.33;1792445;79;21029;-73
2021/08/30 05:27:25;;;;;;;16.27;6.03;;;;;;;29.12;34.29;100259.92;1792406;79;21397;-74
2021/08/30 05:29:54;;;;;;;18.92;5.45;;;;;;;29.27;34.46;100262.27;1792429;79;20911;-73
2021/08/30 05:32:22;;;;;;;13.98;7.90;;;;;;;29.55;34.84;100257.70;1792336;79;20915;-74
2021/08/30 05:34:50;;;;;;;14.43;7.78;;;;;;;29.87;33.08;100262.95;1792273;80;21361;-77
2021/08/30 05:37:18;;;;;;;11.57;5.08;;;;;;;30.06;33.02;100256.45;1792249;80;21483;-74
2021/08/30 05:39:45;;;;;;;16.52;5.50;;;;;;;30.28;32.97;100263.55;1792597;79;21094;-75
2021/08/30 05:42:11;;;;;;;10.25;5.53;;;;;;;30.51;32.47;100258.71;1792359;79;20966;-75
2021/08/30 05:44:38;;;;;;;12.70;5.55;;;;;;;30.68;32.05;100260.22;1792579;80;20943;-74
2021/08/30 05:47:06;;;;;;;11.95;5.58;;;;;;;30.76;31.99;100263.09;1792344;79;21112;-75
2021/08/30 05:49:32;;;;;;;14.83;5.58;;;;;;;30.91;32.06;100252.66;1792566;80;21485;-76
2021/08/30 05:51:59;;;;;;;12.82;5.65;;;;;;;31.09;31.46;100261.20;1792419;79;21135;-76
2021/08/30 05:54:26;;;;;;;14.83;5.25;;;;;;;31.24;31.59;100268.00;1792663;80;20949;-75
2021/08/30 05:56:53;;;;;;;12.18;5.37;;;;;;;31.39;31.48;100266.47;1792400;79;20931;-77
2021/08/30 05:59:20;;;;;;;7.50;4.22;;;;;;;31.60;31.28;100256.90;1792291;80;21513;-75
2021/08/30 06:01:47;;;;;;;13.22;4.80;;;;;;;31.73;31.01;100259.05;1792487;79;20855;-75
2021/08/30 06:04:14;;;;;;;11.75;4.47;;;;;;;31.91;31.06;100258.86;1792558;80;21507;-74
2021/08/30 06:06:41;;;;;;;11.93;5.65;;;;;;;32.11;30.45;100266.59;1792160;79;20970;-75
2021/08/30 06:09:08;;;;;;;12.18;4.90;;;;;;;32.22;30.49;100264.89;1792164;80;20943;-73
2021/08/30 06:11:35;;;;;;;13.30;6.00;;;;;;;32.33;30.27;100255.04;1792291;80;20923;-74
2021/08/30 06:14:02;;;;;;;14.55;4.90;;;;;;;32.42;30.42;100253.56;1792648;80;20856;-74
2021/08/30 06:16:29;;;;;;;13.75;4.17;;;;;;;32.53;30.15;100253.23;1792520;80;21480;-75
2021/08/30 06:18:57;;;;;;;11.80;5.12;;;;;;;32.65;29.98;100260.75;1792380;80;20891;-74
2021/08/30 06:21:25;;;;;;;11.35;5.42;;;;;;;32.78;29.86;100251.45;1792465;80;21009;-74
2021/08/30 06:23:52;;;;;;;10.70;5.67;;;;;;;32.97;29.91;100266.42;1792259;80;20935;-74
2021/08/30 06:26:19;;;;;;;11.38;4.90;;;;;;;33.20;29.62;100265.95;1792460;80;20978;-73
2021/08/30 06:28:45;;;;;;;9.20;6.08;;;;;;;33.34;29.19;100268.58;1792696;80;21111;-73
2021/08/30 06:31:12;;;;;;;17.65;4.70;;;;;;;33.40;29.13;100257.25;1792542;80;20873;-74
2021/08/30 06:33:39;;;;;;;8.23;4.67;;;;;;;33.49;29.18;100263.06;1793427;80;20942;-73
2021/08/30 06:36:06;;;;;;;10.78;4.60;;;;;;;33.65;28.93;100256.76;1793770;80;20947;-73
2021/08/30 06:38:33;;;;;;;11.80;4.67;;;;;;;33.82;29.16;100267.02;1795802;79;20852;-73
2021/08/30 06:40:59;;;;;;;11.12;5.20;;;;;;;34.09;28.20;100279.83;1794073;80;21137;-75
2021/08/30 06:43:27;;;;;;;13.90;4.87;;;;;;;34.18;27.79;100273.41;1792665;80;20919;-74
2021/08/30 06:45:53;;;;;;;17.48;5.37;;;;;;;34.25;28.24;100265.86;1792204;80;20930;-74
2021/08/30 06:48:20;;;;;;;18.00;5.67;;;;;;;34.44;27.67;100272.57;1792580;80;20986;-74
2021/08/30 06:50:47;;;;;;;12.18;5.53;;;;;;;34.57;27.78;100268.57;1792509;80;21001;-74
2021/08/30 06:53:14;;;;;;;13.28;5.40;;;;;;;34.75;27.89;100270.13;1792349;80;21584;-74
2021/08/30 06:55:41;;;;;;;17.98;6.00;;;;;;;35.03;27.96;100268.12;1792297;80;21392;-73
2021/08/30 06:58:09;;;;;;;15.38;5.60;;;;;;;35.28;26.94;100274.28;1792373;80;20868;-73
2021/08/30 07:00:36;;;;;;;12.37;6.03;;;;;;;35.43;26.94;100275.72;1792223;80;20891;-75
2021/08/30 07:03:03;;;;;;;15.10;5.87;;;;;;;35.63;26.97;100275.56;1792757;80;20966;-79
2021/08/30 07:05:30;;;;;;;17.02;5.83;;;;;;;35.84;26.20;100278.64;1792406;80;21615;-77
2021/08/30 07:07:58;;;;;;;11.68;5.17;;;;;;;35.85;26.26;100272.64;1791043;80;20911;-76
2021/08/30 07:10:24;;;;;;;15.72;5.22;;;;;;;35.95;26.46;100270.47;1789081;80;21373;-76
2021/08/30 07:12:51;;;;;;;14.47;5.05;;;;;;;36.14;26.68;100277.09;1789213;80;20966;-78
2021/08/30 07:15:18;;;;;;;16.25;5.35;;;;;;;36.35;26.24;100266.99;1789149;79;21001;-78
2021/08/30 07:17:45;;;;;;;15.50;5.35;;;;;;;36.61;25.94;100270.59;1789193;80;21141;-76
2021/08/30 07:20:13;;;;;;;14.55;5.17;;;;;;;36.79;25.57;100280.69;1789027;79;20875;-76
2021/08/30 07:22:39;;;;;;;16.32;5.05;;;;;;;36.90;25.40;100270.82;1788749;80;21420;-75
2021/08/30 07:25:07;;;;;;;18.05;5.42;;;;;;;37.10;25.06;100265.07;1788949;80;20852;-73
2021/08/30 07:27:34;;;;;;;13.05;5.33;;;;;;;37.23;24.99;100269.95;1788989;80;20895;-73
2021/08/30 07:30:01;;;;;;;18.17;6.33;;;;;;;37.31;25.22;100268.58;1788975;80;21518;-72
2021/08/30 07:32:29;;;;;;;12.68;5.40;;;;;;;37.47;24.80;100273.44;1788965;80;20939;-73
2021/08/30 07:34:56;;;;;;;12.50;6.10;;;;;;;37.57;24.99;100265.75;1788833;79;20896;-73
2021/08/30 07:37:22;;;;;;;16.30;7.28;;;;;;;37.68;25.06;100265.97;1789134;79;22056;-75
2021/08/30 07:39:49;;;;;;;15.43;6.05;;;;;;;37.93;24.12;100265.84;1788891;80;20978;-73
2021/08/30 07:42:16;;;;;;;14.38;6.12;;;;;;;37.95;24.20;100266.38;1788933;80;21978;-76
2021/08/30 07:44:43;;;;;;;13.18;7.10;;;;;;;37.99;24.03;100272.08;1788893;79;20879;-73
2021/08/30 07:47:12;;;;;;;10.32;5.30;;;;;;;37.88;24.14;100264.48;1788823;80;21005;-74
2021/08/30 07:49:39;;;;;;;17.35;6.03;;;;;;;37.88;23.99;100265.03;1788751;80;20868;-72
2021/08/30 07:52:06;;;;;;;15.05;6.22;;;;;;;37.86;24.60;100268.60;1789115;80;20959;-73
2021/08/30 07:54:34;;;;;;;20.48;6.22;;;;;;;37.92;25.04;100257.34;1789002;80;21757;-73
2021/08/30 07:57:01;;;;;;;17.98;6.40;;;;;;;38.05;24.05;100254.55;1789252;79;20962;-74
2021/08/30 07:59:28;;;;;;;19.90;6.40;;;;;;;38.05;23.91;100257.30;1788874;80;21567;-73
2021/08/30 08:01:55;;;;;;;11.63;5.85;;;;;;;38.08;24.08;100260.00;1789112;80;20982;-76
2021/08/30 08:04:22;;;;;;;17.27;5.50;;;;;;;38.19;24.46;100258.02;1788981;80;21408;-73
2021/08/30 08:06:49;;;;;;;16.77;6.75;;;;;;;38.40;24.31;100256.77;1789285;79;21751;-73
2021/08/30 08:09:15;;;;;;;19.80;6.40;;;;;;;38.70;23.50;100256.24;1788523;80;20922;-73
2021/08/30 08:11:43;;;;;;;11.15;5.65;;;;;;;38.84;23.43;100250.89;1788862;79;21563;-72
2021/08/30 08:14:10;;;;;;;19.70;6.37;;;;;;;38.96;23.18;100247.23;1789202;80;20895;-72
2021/08/30 08:16:37;;;;;;;17.92;6.70;;;;;;;39.03;22.81;100244.95;1788935;80;20884;-73
2021/08/30 08:19:04;;;;;;;16.73;6.30;;;;;;;39.03;22.77;100240.03;1788998;79;21592;-72
2021/08/30 08:23:20;;;;;;;18.00;5.92;;;;;;;39.08;22.54;100231.17;1816263;79;22581;-73
2021/08/30 08:25:47;;;;;;;20.40;7.15;;;;;;;39.12;22.91;100236.91;1789515;80;20911;-74
2021/08/30 08:28:14;;;;;;;17.00;6.25;;;;;;;39.26;22.45;100227.41;1789383;80;21523;-72
2021/08/30 08:30:41;;;;;;;10.50;5.87;;;;;;;39.38;22.66;100238.25;1789705;80;20904;-73
2021/08/30 08:33:08;;;;;;;14.90;6.10;;;;;;;39.50;22.40;100241.13;1789004;79;21464;-72
2021/08/30 08:35:35;;;;;;;11.50;6.72;;;;;;;39.54;22.56;100234.75;1789321;79;21069;-75
2021/08/30 08:38:02;;;;;;;17.40;6.45;;;;;;;39.67;22.18;100229.65;1789468;79;20923;-76
2021/08/30 08:40:29;;;;;;;14.55;7.03;;;;;;;39.84;22.89;100229.14;1789097;80;21138;-75
2021/08/30 08:42:56;;;;;;;13.03;6.10;;;;;;;40.03;22.92;100229.95;1789350;80;20888;-73
2021/08/30 08:45:23;;;;;;;20.20;6.40;;;;;;;40.09;21.28;100226.02;1789799;80;20974;-73
2021/08/30 08:47:50;;;;;;;12.75;5.62;;;;;;;39.81;21.37;100224.23;1789261;79;21018;-72
2021/08/30 08:50:20;;;;;;;16.93;6.53;;;;;;;39.64;21.84;100219.24;1789627;80;20921;-72
2021/08/30 08:52:46;;;;;;;16.57;5.20;;;;;;;39.73;22.11;100225.16;1789635;80;22161;-73
2021/08/30 08:55:15;;;;;;;11.45;7.17;;;;;;;39.86;21.61;100216.73;1789512;80;20888;-72
2021/08/30 08:57:43;;;;;;;12.75;6.10;;;;;;;40.00;21.39;100225.06;1789436;79;21476;-70
2021/08/30 09:00:12;;;;;;;14.60;5.37;;;;;;;40.09;22.07;100216.40;1789445;80;21006;-70
2021/08/30 09:02:39;;;;;;;11.18;5.40;;;;;;;40.25;21.55;100212.02;1788998;80;20963;-70
2021/08/30 09:05:10;;;;;;;12.85;5.95;;;;;;;40.36;20.89;100222.56;1789307;80;21122;-70
2021/08/30 09:07:43;;;;;;;11.15;6.10;;;;;;;40.33;20.72;100214.93;1789068;79;21397;-71
2021/08/30 09:10:16;;;;;;;15.32;6.20;;;;;;;40.34;21.12;100217.11;1788645;80;20935;-71
2021/08/30 09:12:41;;;;;;;;;;;;;;;40.43;20.81;100215.30;1791561;80;21909;-71
2021/08/30 09:15:20;;;;;;;14.45;6.22;;;;;;;40.43;20.86;100212.55;1789518;80;20084;-71
2021/08/30 09:17:55;;;;;;;16.25;5.42;;;;;;;40.43;20.46;100212.55;1789558;80;21373;-73
2021/08/30 09:20:27;;;;;;;17.48;6.83;;;;;;;40.47;20.05;100205.34;1789378;80;21484;-72
2021/08/30 09:22:54;;;;;;;7.90;5.12;;;;;;;40.50;20.43;100208.03;1780060;80;21509;-72
2021/08/30 09:25:21;;;;;;;11.90;5.72;;;;;;;40.56;20.31;100204.08;1775753;80;20924;-70
2021/08/30 09:27:51;;;;;;;9.85;4.45;;;;;;;40.66;20.42;100199.75;1775988;80;20952;-71
2021/08/30 09:30:25;;;;;;;23.90;6.25;;;;;;;40.85;19.94;100190.64;1775647;80;22185;-72
2021/08/30 09:32:52;;;;;;;11.63;5.37;;;;;;;40.92;19.40;100198.73;1755142;80;20928;-73
2021/08/30 09:35:19;;;;;;;15.10;5.28;;;;;;;40.89;19.19;100204.02;1775353;80;20925;-72
2021/08/30 09:37:46;;;;;;;22.30;5.55;;;;;;;40.78;19.50;100201.48;1728286;80;20901;-74
2021/08/30 09:40:19;;;;;;;12.33;5.67;;;;;;;40.72;19.87;100190.31;1775361;80;21323;-72
2021/08/30 09:42:54;;;;;;;8.90;5.12;;;;;;;40.73;19.99;100193.31;1775217;80;21134;-71
2021/08/30 09:45:23;;;;;;;12.55;4.90;;;;;;;40.90;19.97;100188.59;1775172;80;21406;-71
2021/08/30 09:47:58;;;;;;;11.97;5.20;;;;;;;41.08;19.33;100192.34;1775628;80;20995;-72
2021/08/30 09:50:39;;;;;;;13.18;5.87;;;;;;;41.06;19.29;100186.90;1775425;80;20947;-70
2021/08/30 09:53:05;;;;;;;15.08;5.12;;;;;;;40.96;18.74;100192.06;1774966;80;20912;-71
2021/08/30 09:55:32;;;;;;;13.83;5.28;;;;;;;40.87;18.97;100193.34;1775278;80;22148;-73
2021/08/30 09:58:00;;;;;;;9.30;5.08;;;;;;;40.82;19.48;100186.54;1775768;80;20880;-72
2021/08/30 10:00:26;;;;;;;10.90;5.12;;;;;;;40.82;19.34;100185.16;1775187;80;20889;-71
2021/08/30 10:02:57;;;;;;;11.55;4.95;;;;;;;40.75;18.90;100182.82;1775541;80;20897;-72
2021/08/30 10:05:25;;;;;;;12.65;5.30;;;;;;;40.64;19.15;100187.42;1775386;80;20979;-72
2021/08/30 10:07:55;;;;;;;14.00;5.00;;;;;;;40.62;19.10;100191.84;1775562;80;21123;-70
2021/08/30 10:10:24;;;;;;;15.00;5.70;;;;;;;40.49;18.58;100187.98;1775428;80;20924;-70
2021/08/30 10:12:53;;;;;;;9.15;4.58;;;;;;;40.27;18.91;100190.59;1775038;80;21457;-74
2021/08/30 10:15:22;;;;;;;13.85;4.50;;;;;;;40.27;19.09;100205.14;1775191;80;20952;-72
2021/08/30 10:17:50;;;;;;;11.63;4.50;;;;;;;40.24;18.63;100185.08;1775629;80;21412;-72
2021/08/30 10:20:19;;;;;;;13.50;4.97;;;;;;;40.12;18.49;100192.44;1775556;80;22147;-72
2021/08/30 10:23:06;;;;;;;12.13;5.08;;;;;;;39.94;19.03;100185.86;1776322;80;20964;-71
2021/08/30 10:25:35;;;;;;;14.70;5.25;;;;;;;39.88;19.05;100188.98;1777923;80;21454;-70
2021/08/30 10:28:09;;;;;;;9.58;4.67;;;;;;;39.79;19.07;100186.88;1775815;80;21372;-70
2021/08/30 10:30:38;;;;;;;10.32;4.97;;;;;;;39.76;18.79;100191.61;1775708;80;21473;-70
2021/08/30 10:33:07;;;;;;;12.53;4.80;;;;;;;39.64;18.80;100189.05;1775427;80;21726;-70
2021/08/30 10:35:38;;;;;;;12.45;5.12;;;;;;;39.53;18.92;100178.23;1775325;80;20976;-69
2021/08/30 10:38:19;;;;;;;8.38;4.90;;;;;;;39.58;18.32;100186.95;1775454;80;20904;-72
2021/08/30 10:40:53;;;;;;;10.32;4.70;;;;;;;39.59;18.65;100180.33;1775293;80;20904;-70
2021/08/30 10:43:21;;;;;;;12.50;4.75;;;;;;;39.62;18.64;100183.03;1775112;80;20983;-70
2021/08/30 10:45:58;;;;;;;11.20;4.65;;;;;;;39.57;18.48;100182.55;1775528;80;21916;-71
2021/08/30 10:48:35;;;;;;;10.53;5.20;;;;;;;39.45;18.45;100176.14;1775010;80;20916;-71
2021/08/30 10:51:24;;;;;;;11.33;4.67;;;;;;;39.27;18.62;100177.73;1775242;80;20917;-70
2021/08/30 10:54:01;;;;;;;16.62;4.87;;;;;;;39.21;18.82;100162.44;1775115;80;21190;-69
2021/08/30 10:56:30;;;;;;;13.30;5.60;;;;;;;39.26;19.29;100168.41;1775396;80;21366;-70
2021/08/30 10:59:03;;;;;;;7.25;4.92;;;;;;;39.35;19.06;100168.02;1775220;80;21768;-70
2021/08/30 11:01:26;;;;;;;9.60;4.60;;;;;;;39.49;19.20;100168.95;1774370;80;20939;-71
2021/08/30 11:03:57;;;;;;;14.60;5.40;;;;;;;39.61;18.83;100160.83;1775265;80;20936;-71
2021/08/30 11:06:24;;;;;;;11.97;6.20;;;;;;;39.64;19.00;100158.84;1775668;80;21474;-70
2021/08/30 11:08:51;;;;;;;11.18;5.42;;;;;;;39.68;19.60;100172.24;1775197;80;20960;-72
2021/08/30 11:11:25;;;;;;;8.83;5.12;;;;;;;39.73;18.93;100155.68;1775167;80;21528;-70
2021/08/30 11:14:11;;;;;;;12.15;5.25;;;;;;;39.79;19.00;100161.36;1775460;80;20936;-71
2021/08/30 11:16:39;;;;;;;17.95;5.60;;;;;;;39.83;19.10;100152.01;1775125;80;20932;-71
2021/08/30 11:19:13;;;;;;;10.32;5.37;;;;;;;39.86;18.97;100162.38;1775274;80;20928;-72
2021/08/30 11:21:47;;;;;;;8.40;5.25;;;;;;;39.88;18.78;100159.59;1778656;80;21043;-72
2021/08/30 11:24:41;;;;;;;14.03;5.53;;;;;;;39.76;18.56;100156.48;1775085;80;21682;-72
2021/08/30 11:27:14;;;;;;;12.80;5.85;;;;;;;39.66;18.97;100147.02;1775075;80;21474;-72
2021/08/30 11:29:47;;;;;;;15.18;6.05;;;;;;;39.57;18.39;100161.41;1775182;80;20921;-72
2021/08/30 11:32:15;;;;;;;13.98;6.05;;;;;;;39.38;18.53;100157.87;1775042;80;21553;-73